logo
Search for airport 
image banner adimage banner adimage banner ad
image banner ad

EDHAR - Hartenstein-Thierfeld

Located in , Germany

ICAO - ED3144, IATA -

Data provided by Airmate  

General information

Coordinates: N50°40'34" E12°40'54"
Elevation is 1358 feet MSL.
 
View others Airports in Saxony

Operational data

Special qualification required
Current time UTC:
Current local time:
Weather at : EDAC - Leipzig-Altenburg Airport ( 36 km )
METAR: EDAC 302120Z AUTO 22004KT 9999 // FEW014/// 13/13 Q1005
TAF: TAF EDAC 301700Z 3018/3103 22004KT 9999 FEW012 BKN020 TEMPO 3018/3021 SHRA BKN012 BKN020CB BECMG 3021/3023 BKN009 TEMPO 3022/3103 3000 BR BKN004 PROB30 TEMPO 3023/3103 0700 FG BKN001
View NOTAMs / SUP AIP / TFR affecting this airport [VIEW]
Communications frequencies: [VIEW]

Runways:

RWY identifierQFULength (ft)Width (ft)SurfaceLDA (ft)
0995°98482GRASS
27275°98482GRASS

Airport contact information

Satellite view of EDHAR